Fenton, New York
Current Conditions -  °F | °C
As of 3:53 PM on Wednesday 26 Nov 2014 (Local Time) from KBGM Reporting Station
Heavy Snow Heavy Snow  
Wind Chill: 22°   Ceiling: 600
Heat Index: 30°   Visibility: 0.25mi
Dew Point: 28°   Wind: 9mph
Humidity: 92%   Direction: 20°NNE
Pressure: 29.95"   Gusts: NA
Location:  42.2035°N, 75.7599°W
Report Text: KBGM 262053Z 02008KT 1/4SM +SN FZFG VV006 M01/M02 A2995 RMK AO2 TWR VIS 1/4 SLP158 P0008 60019 T10111022 55011 RVRNO
Loading
Personal Weather Stations






























Interactive Weather Map New forecast layout! Learn more

10-Day Weather Forecast

Advertisements
Track Severe Weather on mobile